Terminal Aerodrome Forecast
Issued by NWS Medford, OR

Home | Current Version | Previous Version | Text Only | Print | Product List | Glossary On
Versions: 1 2 3 4 5 6 7 8 9 10 11 12 13 14 15 16 17 18 19 20 21 22 23 24 25 26
218
FTUS46 KMFR 200749 AAB
TAFMFR
TAF AMD
KMFR 200749Z 2008/2106 00000KT 1/4SM -SHRA FG OVC003
      TEMPO 2008/2011 2SM -SHRA BR
     FM201800 25013KT P6SM -SHRA SCT040 OVC050
     FM210100 20007KT P6SM -SHRA OVC050=

USA.gov is the U.S. government's official web portal to all federal, state and local government web resources and services.